createdAt,value
2019-02-05T00:02:18.171Z,95338.63
2019-02-05T00:04:51.150Z,95334.94
2019-02-05T00:07:24.542Z,95341.80
2019-02-05T00:09:59.463Z,95345.00
2019-02-05T00:12:32.365Z,95347.52
2019-02-05T00:15:05.740Z,95339.73
2019-02-05T00:17:38.668Z,95349.30
2019-02-05T00:20:12.055Z,95350.44
2019-02-05T00:22:45.354Z,95353.28
2019-02-05T00:25:18.773Z,95354.25
2019-02-05T00:27:53.330Z,95359.56
2019-02-05T00:30:26.255Z,95364.06
2019-02-05T00:32:59.563Z,95365.29
2019-02-05T00:35:32.776Z,95360.98
2019-02-05T00:38:05.986Z,95360.88
2019-02-05T00:40:38.821Z,95365.09
2019-02-05T00:43:12.006Z,95359.09
2019-02-05T00:45:45.013Z,95359.28
2019-02-05T00:48:17.802Z,95349.38
2019-02-05T00:50:51.039Z,95349.69
2019-02-05T00:53:24.189Z,95348.00
2019-02-05T00:55:59.695Z,95340.52
2019-02-05T00:58:32.853Z,95342.50
2019-02-05T01:01:07.032Z,95337.07
2019-02-05T01:03:41.099Z,95339.06
2019-02-05T01:06:13.794Z,95338.77
2019-02-05T01:08:48.029Z,95333.76
2019-02-05T01:11:21.403Z,95324.80
2019-02-05T01:13:54.421Z,95327.86
2019-02-05T01:16:27.486Z,95321.51
2019-02-05T01:19:01.492Z,95319.74
2019-02-05T01:21:34.487Z,95327.61
2019-02-05T01:24:07.709Z,95326.78
2019-02-05T01:26:41.926Z,95328.92
2019-02-05T01:29:15.073Z,95334.08
2019-02-05T01:31:47.862Z,95334.28
2019-02-05T01:34:20.786Z,95323.38
2019-02-05T01:36:53.794Z,95323.84
2019-02-05T01:39:26.791Z,95323.44
2019-02-05T01:41:59.635Z,95331.84
2019-02-05T01:44:32.653Z,95326.96
2019-02-05T01:47:05.607Z,95320.97
2019-02-05T01:49:39.245Z,95330.22
2019-02-05T01:52:12.411Z,95318.95
2019-02-05T01:54:45.420Z,95323.80
2019-02-05T01:57:18.218Z,95316.28
2019-02-05T01:59:50.871Z,95321.39
2019-02-05T02:02:24.108Z,95326.86
2019-02-05T02:04:57.006Z,95321.95
2019-02-05T02:07:29.792Z,95318.33
2019-02-05T02:10:02.889Z,95317.80
2019-02-05T02:12:36.094Z,95323.86
2019-02-05T02:15:10.516Z,95324.74
2019-02-05T02:17:43.597Z,95323.44
2019-02-05T02:20:18.599Z,95331.45
2019-02-05T02:22:51.487Z,95331.61
2019-02-05T02:25:24.553Z,95336.56
2019-02-05T02:27:57.591Z,95339.23
2019-02-05T02:30:39.219Z,95337.34
2019-02-05T02:33:12.343Z,95331.98
2019-02-05T02:35:45.480Z,95327.77
2019-02-05T02:38:18.719Z,95329.25
2019-02-05T02:40:51.667Z,95327.88
2019-02-05T02:43:25.034Z,95323.88
2019-02-05T02:45:59.626Z,95329.25
2019-02-05T02:48:32.651Z,95329.55
2019-02-05T02:51:06.449Z,95329.40
2019-02-05T02:53:39.397Z,95336.50
2019-02-05T02:56:12.500Z,95336.77
2019-02-05T02:58:45.318Z,95347.41
2019-02-05T03:01:18.232Z,95332.17
2019-02-05T03:03:51.047Z,95340.61
2019-02-05T03:06:24.138Z,95332.88
2019-02-05T03:08:57.084Z,95332.20
2019-02-05T03:11:29.917Z,95324.06
2019-02-05T03:14:02.974Z,95325.20
2019-02-05T03:16:36.337Z,95325.21
2019-02-05T03:19:09.465Z,95314.92
2019-02-05T03:21:42.773Z,95322.36
2019-02-05T03:24:15.804Z,95324.60
2019-02-05T03:26:48.685Z,95329.05
2019-02-05T03:29:21.827Z,95324.55
2019-02-05T03:31:56.031Z,95319.89
2019-02-05T03:34:28.655Z,95311.81
2019-02-05T03:37:01.655Z,95316.63
2019-02-05T03:39:34.738Z,95316.50
2019-02-05T03:42:07.729Z,95324.31
2019-02-05T03:44:40.724Z,95329.09
2019-02-05T03:47:14.389Z,95331.11
2019-02-05T03:49:47.574Z,95332.06
2019-02-05T03:52:39.846Z,95325.08
2019-02-05T03:56:01.294Z,95321.58
2019-02-05T03:59:11.830Z,95321.86
2019-02-05T04:02:40.636Z,95329.56
2019-02-05T04:06:01.466Z,95329.67
2019-02-05T04:09:48.925Z,95325.34
2019-02-05T04:13:13.632Z,95330.16
2019-02-05T04:16:19.337Z,95325.65
2019-02-05T04:19:45.481Z,95316.11
2019-02-05T04:23:09.535Z,95323.20
2019-02-05T04:26:45.651Z,95330.95
2019-02-05T04:30:02.769Z,95323.50
2019-02-05T04:34:00.269Z,95314.54
2019-02-05T04:36:58.090Z,95311.21
2019-02-05T04:40:29.572Z,95315.52
2019-02-05T04:43:57.141Z,95310.39
2019-02-05T04:47:06.347Z,95309.45
2019-02-05T04:50:17.439Z,95320.39
2019-02-05T04:53:23.283Z,95314.07
2019-02-05T04:56:50.245Z,95318.32
2019-02-05T04:59:59.382Z,95321.94
2019-02-05T05:03:21.087Z,95321.25
2019-02-05T05:07:01.683Z,95325.27
2019-02-05T05:09:58.230Z,95328.06
2019-02-05T05:12:32.419Z,95331.05
2019-02-05T05:15:07.121Z,95329.99
2019-02-05T05:17:40.115Z,95333.28
2019-02-05T05:20:14.576Z,95333.70
2019-02-05T05:22:48.364Z,95333.26
2019-02-05T05:25:23.109Z,95334.99
2019-02-05T05:28:10.265Z,95336.89
2019-02-05T05:30:38.040Z,95340.95
2019-02-05T05:33:11.747Z,95341.81
2019-02-05T05:35:45.202Z,95346.45
2019-02-05T05:38:18.464Z,95348.00
2019-02-05T05:40:51.582Z,95354.31
2019-02-05T05:43:25.016Z,95363.46
2019-02-05T05:45:58.287Z,95360.19
2019-02-05T05:48:31.348Z,95356.08
2019-02-05T05:51:05.877Z,95354.27
2019-02-05T05:53:39.027Z,95362.03
2019-02-05T05:56:13.913Z,95357.58
2019-02-05T05:58:47.803Z,95363.03
2019-02-05T06:01:20.825Z,95363.50
2019-02-05T06:03:54.197Z,95369.11
2019-02-05T06:06:27.287Z,95367.81
2019-02-05T06:09:00.261Z,95373.65
2019-02-05T06:11:33.532Z,95372.63
2019-02-05T06:14:06.479Z,95378.56
2019-02-05T06:16:39.783Z,95381.63
2019-02-05T06:19:12.950Z,95371.34
2019-02-05T06:21:46.300Z,95378.42
2019-02-05T06:24:19.275Z,95369.62
2019-02-05T06:26:52.591Z,95368.34
2019-02-05T06:29:25.876Z,95367.77
2019-02-05T06:31:58.805Z,95371.42
2019-02-05T06:34:32.204Z,95378.22
2019-02-05T06:37:05.465Z,95376.65
2019-02-05T06:39:38.478Z,95375.81
2019-02-05T06:42:11.389Z,95366.27
2019-02-05T06:44:44.334Z,95377.52
2019-02-05T06:47:17.813Z,95377.77
2019-02-05T06:49:50.699Z,95376.89
2019-02-05T06:52:23.580Z,95377.62
2019-02-05T06:54:56.677Z,95384.02
2019-02-05T06:57:30.953Z,95384.90
2019-02-05T07:00:03.818Z,95389.95
2019-02-05T07:02:37.168Z,95383.79
2019-02-05T07:05:11.709Z,95390.35
2019-02-05T07:07:44.788Z,95391.68
2019-02-05T07:10:20.866Z,95391.55
2019-02-05T07:12:54.011Z,95379.21
2019-02-05T07:15:26.928Z,95383.14
2019-02-05T07:18:00.165Z,95376.97
2019-02-05T07:20:33.189Z,95382.03
2019-02-05T07:23:06.765Z,95388.69
2019-02-05T07:25:39.978Z,95388.99
2019-02-05T07:28:13.149Z,95392.43
2019-02-05T07:30:46.177Z,95397.24
2019-02-05T07:33:19.393Z,95392.50
2019-02-05T07:35:52.442Z,95394.50
2019-02-05T07:38:25.465Z,95389.95
2019-02-05T07:40:58.435Z,95396.55
2019-02-05T07:43:31.410Z,95394.80
2019-02-05T07:46:04.940Z,95395.71
2019-02-05T07:48:37.941Z,95398.16
2019-02-05T07:51:12.350Z,95404.00
2019-02-05T07:53:45.561Z,95405.05
2019-02-05T07:56:18.910Z,95403.42
2019-02-05T07:58:52.386Z,95400.08
2019-02-05T08:01:25.414Z,95404.44
2019-02-05T08:03:58.581Z,95400.34
2019-02-05T08:06:32.109Z,95402.69
2019-02-05T08:09:08.335Z,95398.52
2019-02-05T08:11:41.942Z,95400.81
2019-02-05T08:14:15.534Z,95395.89
2019-02-05T08:16:49.267Z,95398.36
2019-02-05T08:19:22.496Z,95396.34
2019-02-05T08:21:56.241Z,95393.96
2019-02-05T08:24:29.119Z,95392.13
2019-02-05T08:27:02.336Z,95391.94
2019-02-05T08:29:36.533Z,95387.56
2019-02-05T08:32:10.372Z,95381.94
2019-02-05T08:34:46.514Z,95388.89
2019-02-05T08:37:19.842Z,95392.83
2019-02-05T08:39:53.537Z,95390.73
2019-02-05T08:42:27.148Z,95387.58
2019-02-05T08:45:00.464Z,95381.81
2019-02-05T08:47:33.608Z,95382.01
2019-02-05T08:50:10.970Z,95380.72
2019-02-05T08:52:44.255Z,95386.38
2019-02-05T08:55:19.220Z,95380.86
2019-02-05T08:57:53.476Z,95369.75
2019-02-05T09:00:30.028Z,95370.22
2019-02-05T09:03:03.247Z,95371.35
2019-02-05T09:05:36.352Z,95372.34
2019-02-05T09:08:09.799Z,95372.05
2019-02-05T09:10:44.983Z,95380.35
2019-02-05T09:13:18.177Z,95379.10
2019-02-05T09:15:51.305Z,95378.58
2019-02-05T09:18:24.941Z,95375.09
2019-02-05T09:20:58.318Z,95375.16
2019-02-05T09:23:31.418Z,95375.40
2019-02-05T09:26:04.670Z,95372.70
2019-02-05T09:28:38.612Z,95370.73
2019-02-05T09:31:11.965Z,95375.19
2019-02-05T09:33:45.164Z,95373.53
2019-02-05T09:36:18.314Z,95369.91
2019-02-05T09:38:51.310Z,95368.44
2019-02-05T09:41:25.002Z,95363.20
2019-02-05T09:43:57.992Z,95367.27
2019-02-05T09:46:31.250Z,95360.45
2019-02-05T09:51:59.464Z,95354.14
2019-02-05T09:54:33.446Z,95342.75
2019-02-05T09:57:06.888Z,95348.55
2019-02-05T09:59:45.502Z,95343.66
2019-02-05T10:02:16.124Z,95342.91
2019-02-05T10:04:49.456Z,95329.11
2019-02-05T10:07:22.695Z,95325.53
2019-02-05T10:09:58.901Z,95308.91
2019-02-05T10:12:32.324Z,95313.47
2019-02-05T10:15:06.576Z,95306.83
2019-02-05T10:17:41.206Z,95311.09
2019-02-05T10:20:15.179Z,95305.92
2019-02-05T10:22:49.159Z,95299.66
2019-02-05T10:25:22.720Z,95294.02
2019-02-05T10:27:56.080Z,95294.28
2019-02-05T10:30:35.363Z,95288.98
2019-02-05T10:33:09.814Z,95283.81
2019-02-05T10:35:43.890Z,95284.70
2019-02-05T10:38:17.504Z,95278.62
2019-02-05T10:40:51.282Z,95278.19
2019-02-05T10:43:24.852Z,95276.89
2019-02-05T10:45:58.633Z,95268.75
2019-02-05T10:48:31.969Z,95268.09
2019-02-05T10:51:05.498Z,95266.34
2019-02-05T10:53:38.918Z,95259.91
2019-02-05T10:56:12.445Z,95254.48
2019-02-05T10:58:45.717Z,95262.89
2019-02-05T11:01:19.474Z,95260.37
2019-02-05T11:03:52.630Z,95256.75
2019-02-05T11:06:26.099Z,95249.02
2019-02-05T11:08:59.844Z,95238.51
2019-02-05T11:11:33.354Z,95232.93
2019-02-05T11:14:07.209Z,95232.39
2019-02-05T11:16:40.734Z,95225.70
2019-02-05T11:19:13.942Z,95224.44
2019-02-05T11:21:48.641Z,95223.50
2019-02-05T11:24:22.124Z,95219.22
2019-02-05T11:26:55.819Z,95214.31
2019-02-05T11:29:29.713Z,95204.63
2019-02-05T11:32:03.134Z,95203.61
2019-02-05T11:34:36.344Z,95201.83
2019-02-05T11:37:09.837Z,95193.45
2019-02-05T11:39:42.947Z,95188.42
2019-02-05T11:42:16.475Z,95185.43
2019-02-05T11:44:50.145Z,95182.50
2019-02-05T11:47:23.599Z,95186.03
2019-02-05T11:49:57.239Z,95180.52
2019-02-05T11:52:31.707Z,95179.51
2019-02-05T11:55:05.249Z,95178.42
2019-02-05T11:57:38.936Z,95178.88
2019-02-05T12:00:32.598Z,95168.78
2019-02-05T12:03:01.952Z,95163.75
2019-02-05T12:05:38.015Z,95179.00
2019-02-05T12:08:11.523Z,95179.24
2019-02-05T12:10:44.649Z,95161.56
2019-02-05T12:13:18.055Z,95167.17
2019-02-05T12:15:52.588Z,95171.65
2019-02-05T12:18:26.208Z,95159.70
2019-02-05T12:21:00.683Z,95161.11
2019-02-05T12:23:33.733Z,95153.70
2019-02-05T12:26:06.979Z,95158.97
2019-02-05T12:28:40.869Z,95145.20
2019-02-05T12:31:13.962Z,95148.30
2019-02-05T12:33:47.468Z,95145.09
2019-02-05T12:36:21.138Z,95140.77
2019-02-05T12:38:54.221Z,95139.31
2019-02-05T12:41:28.183Z,95139.16
2019-02-05T12:44:01.532Z,95134.55
2019-02-05T12:46:34.779Z,95131.43
2019-02-05T12:49:08.322Z,95131.75
2019-02-05T12:51:41.301Z,95127.39
2019-02-05T12:54:14.282Z,95123.56
2019-02-05T12:56:47.979Z,95119.05
2019-02-05T12:59:21.716Z,95116.91
2019-02-05T13:01:54.926Z,95110.41
2019-02-05T13:04:28.281Z,95116.97
2019-02-05T13:07:01.727Z,95112.85
2019-02-05T13:09:34.988Z,95116.67
2019-02-05T13:12:08.883Z,95107.00
2019-02-05T13:14:42.630Z,95105.36
2019-02-05T13:17:16.306Z,95098.11
2019-02-05T13:19:49.602Z,95098.22
2019-02-05T13:22:22.962Z,95103.31
2019-02-05T13:24:56.545Z,95092.42
2019-02-05T13:27:30.255Z,95111.55
2019-02-05T13:30:03.619Z,95103.43
2019-02-05T13:32:37.299Z,95101.61
2019-02-05T13:35:11.543Z,95099.85
2019-02-05T13:37:47.810Z,95099.29
2019-02-05T13:40:24.419Z,95093.55
2019-02-05T13:42:58.011Z,95093.27
2019-02-05T13:45:33.460Z,95102.32
2019-02-05T13:48:07.933Z,95099.54
2019-02-05T13:50:41.353Z,95104.55
2019-02-05T13:53:14.685Z,95100.14
2019-02-05T13:55:48.574Z,95102.65
2019-02-05T13:58:21.967Z,95107.51
2019-02-05T14:00:57.192Z,95101.54
2019-02-05T14:03:30.160Z,95114.33
2019-02-05T14:06:03.454Z,95112.62
2019-02-05T14:08:36.236Z,95114.41
2019-02-05T14:11:09.497Z,95115.84
2019-02-05T14:13:42.658Z,95116.16
2019-02-05T14:16:16.518Z,95124.47
2019-02-05T14:18:55.432Z,95119.17
2019-02-05T14:21:24.548Z,95121.02
2019-02-05T14:23:58.495Z,95129.91
2019-02-05T14:26:31.934Z,95140.82
2019-02-05T14:29:05.344Z,95142.23
2019-02-05T14:31:38.324Z,95136.45
2019-02-05T14:34:11.415Z,95140.02
2019-02-05T14:36:44.611Z,95138.05
2019-02-05T14:39:17.913Z,95140.96
2019-02-05T14:41:51.188Z,95141.42
2019-02-05T14:44:24.245Z,95141.15
2019-02-05T14:46:57.799Z,95143.27
2019-02-05T14:49:30.893Z,95150.18
2019-02-05T14:52:04.130Z,95144.95
2019-02-05T14:54:37.049Z,95144.56
2019-02-05T14:57:10.095Z,95147.08
2019-02-05T14:59:44.312Z,95150.36
2019-02-05T15:02:17.520Z,95147.28
2019-02-05T15:04:50.733Z,95151.38
2019-02-05T15:07:25.265Z,95149.73
2019-02-05T15:09:58.649Z,95152.56
2019-02-05T15:12:32.212Z,95155.55
2019-02-05T15:15:08.296Z,95163.17
2019-02-05T15:17:41.622Z,95173.48
2019-02-05T15:20:25.535Z,95173.14
2019-02-05T15:22:58.607Z,95182.42
2019-02-05T15:25:31.872Z,95182.97
2019-02-05T15:28:05.429Z,95181.59
2019-02-05T15:30:41.464Z,95182.19
2019-02-05T15:33:50.732Z,95185.14
2019-02-05T15:36:31.420Z,95194.97
2019-02-05T15:39:05.089Z,95202.91
2019-02-05T15:41:38.182Z,95199.72
2019-02-05T15:44:11.878Z,95198.61
2019-02-05T15:46:45.087Z,95196.78
2019-02-05T15:49:18.391Z,95193.45
2019-02-05T15:51:54.414Z,95202.30
2019-02-05T15:54:28.089Z,95200.59
2019-02-05T15:57:01.418Z,95199.14
2019-02-05T15:59:34.798Z,95198.87
2019-02-05T16:02:08.216Z,95195.73
2019-02-05T16:04:41.521Z,95206.87
2019-02-05T16:07:14.557Z,95201.93
2019-02-05T16:09:47.813Z,95212.94
2019-02-05T16:12:21.021Z,95220.64
2019-02-05T16:14:53.919Z,95221.12
2019-02-05T16:17:27.625Z,95221.34
2019-02-05T16:20:00.248Z,95221.22
2019-02-05T16:22:33.817Z,95225.89
2019-02-05T16:25:09.618Z,95223.73
2019-02-05T16:27:42.564Z,95220.56
2019-02-05T16:30:19.981Z,95220.27
2019-02-05T16:32:53.203Z,95221.16
2019-02-05T16:35:27.018Z,95220.50
2019-02-05T16:37:59.675Z,95226.19
2019-02-05T16:40:33.120Z,95223.96
2019-02-05T16:43:07.372Z,95226.59
2019-02-05T16:45:40.871Z,95226.31
2019-02-05T16:48:14.110Z,95225.27
2019-02-05T16:50:48.518Z,95229.09
2019-02-05T16:53:21.573Z,95234.98
2019-02-05T16:55:54.929Z,95230.27
2019-02-05T16:58:28.047Z,95225.52
2019-02-05T17:01:02.104Z,95223.13
2019-02-05T17:03:35.815Z,95223.25
2019-02-05T17:06:09.166Z,95227.47
2019-02-05T17:08:42.056Z,95230.70
2019-02-05T17:11:14.933Z,95227.03
2019-02-05T17:13:48.063Z,95233.08
2019-02-05T17:16:21.584Z,95228.21
2019-02-05T17:18:55.183Z,95220.00
2019-02-05T17:21:29.044Z,95216.88
2019-02-05T17:24:02.204Z,95215.75
2019-02-05T17:26:56.312Z,95220.52
2019-02-05T17:29:29.510Z,95224.55
2019-02-05T17:32:02.941Z,95213.77
2019-02-05T17:34:36.229Z,95216.16
2019-02-05T17:37:09.450Z,95212.00
2019-02-05T17:39:42.588Z,95217.50
2019-02-05T17:42:15.619Z,95214.32
2019-02-05T17:44:49.699Z,95218.20
2019-02-05T17:47:23.591Z,95217.34
2019-02-05T17:49:57.079Z,95209.60
2019-02-05T17:52:30.587Z,95212.76
2019-02-05T17:55:03.841Z,95212.66
2019-02-05T17:57:37.037Z,95204.72
2019-02-05T18:00:17.186Z,95210.18
2019-02-05T18:02:51.863Z,95209.91
2019-02-05T18:05:30.386Z,95205.39
2019-02-05T18:08:04.043Z,95209.85
2019-02-05T18:10:37.207Z,95200.80
2019-02-05T18:13:11.085Z,95202.05
2019-02-05T18:15:46.612Z,95206.66
2019-02-05T18:18:20.544Z,95206.80
2019-02-05T18:20:54.738Z,95209.36
2019-02-05T18:23:28.332Z,95214.89
2019-02-05T18:26:03.567Z,95212.16
2019-02-05T18:28:36.896Z,95212.52
2019-02-05T18:31:10.240Z,95215.41
2019-02-05T18:33:43.826Z,95214.50
2019-02-05T18:36:17.149Z,95215.32
2019-02-05T18:38:50.821Z,95218.45
2019-02-05T18:41:25.797Z,95214.63
2019-02-05T18:43:59.547Z,95215.55
2019-02-05T18:46:33.164Z,95222.84
2019-02-05T18:49:08.424Z,95222.03
2019-02-05T18:51:41.914Z,95221.02
2019-02-05T18:54:15.096Z,95223.79
2019-02-05T18:56:48.487Z,95220.79
2019-02-05T18:59:23.000Z,95217.86
2019-02-05T19:01:56.067Z,95219.73
2019-02-05T19:04:29.448Z,95213.61
2019-02-05T19:07:03.882Z,95211.10
2019-02-05T19:09:36.913Z,95206.55
2019-02-05T19:12:10.473Z,95212.47
2019-02-05T19:14:44.406Z,95208.23
2019-02-05T19:17:18.381Z,95198.77
2019-02-05T19:19:51.930Z,95201.70
2019-02-05T19:22:26.573Z,95200.98
2019-02-05T19:25:21.906Z,95203.55
2019-02-05T19:27:58.149Z,95200.73
2019-02-05T19:30:32.646Z,95200.30
2019-02-05T19:33:07.730Z,95199.13
2019-02-05T19:35:40.914Z,95192.63
2019-02-05T19:38:14.260Z,95190.83
2019-02-05T19:40:57.209Z,95182.92
2019-02-05T19:43:23.411Z,95182.37
2019-02-05T19:46:21.902Z,95173.52
2019-02-05T19:49:01.073Z,95167.84
2019-02-05T19:51:34.223Z,95174.09
2019-02-05T19:54:07.641Z,95170.38
2019-02-05T19:56:40.970Z,95165.66
2019-02-05T19:59:14.555Z,95165.33
2019-02-05T20:01:47.818Z,95170.05
2019-02-05T20:04:21.296Z,95170.19
2019-02-05T20:06:55.995Z,95167.33
2019-02-05T20:09:30.468Z,95166.02
2019-02-05T20:12:04.481Z,95166.44
2019-02-05T20:14:38.032Z,95164.36
2019-02-05T20:17:11.608Z,95158.38
2019-02-05T20:19:44.967Z,95167.70
2019-02-05T20:22:21.104Z,95161.72
2019-02-05T20:24:54.448Z,95160.23
2019-02-05T20:27:27.700Z,95156.64
2019-02-05T20:30:01.015Z,95160.18
2019-02-05T20:32:36.062Z,95162.46
2019-02-05T20:35:09.642Z,95176.36
2019-02-05T20:37:42.794Z,95161.70
2019-02-05T20:40:19.048Z,95166.23
2019-02-05T20:42:52.421Z,95147.58
2019-02-05T20:45:25.878Z,95147.83
2019-02-05T20:47:59.331Z,95145.27
2019-02-05T20:50:32.222Z,95144.01
2019-02-05T20:53:13.651Z,95137.28
2019-02-05T20:55:40.314Z,95135.03
2019-02-05T20:58:13.503Z,95133.25
2019-02-05T21:00:46.987Z,95145.06
2019-02-05T21:03:20.443Z,95143.17
2019-02-05T21:05:53.485Z,95130.75
2019-02-05T21:08:26.785Z,95122.45
2019-02-05T21:11:00.179Z,95125.25
2019-02-05T21:13:33.193Z,95125.87
2019-02-05T21:16:07.028Z,95138.78
2019-02-05T21:18:40.162Z,95137.53
2019-02-05T21:21:13.066Z,95121.05
2019-02-05T21:23:46.063Z,95126.30
2019-02-05T21:26:19.378Z,95130.52
2019-02-05T21:28:52.989Z,95127.45
2019-02-05T21:31:28.391Z,95137.55
2019-02-05T21:34:14.871Z,95142.00
2019-02-05T21:36:38.276Z,95139.21
2019-02-05T21:39:29.563Z,95132.53
2019-02-05T21:42:20.306Z,95136.45
2019-02-05T21:45:14.067Z,95134.84
2019-02-05T21:47:46.280Z,95123.39
2019-02-05T21:50:20.999Z,95126.05
2019-02-05T21:52:54.231Z,95129.25
2019-02-05T21:55:27.302Z,95136.48
2019-02-05T21:58:00.319Z,95135.02
2019-02-05T22:00:34.138Z,95133.25
2019-02-05T22:03:08.230Z,95144.97
2019-02-05T22:05:41.070Z,95141.67
2019-02-05T22:08:14.167Z,95138.74
2019-02-05T22:10:47.384Z,95128.09
2019-02-05T22:13:20.399Z,95128.09
2019-02-05T22:15:53.533Z,95128.65
2019-02-05T22:18:26.430Z,95128.38
2019-02-05T22:20:59.383Z,95128.81
2019-02-05T22:23:32.290Z,95131.88
2019-02-05T22:26:05.174Z,95119.89
2019-02-05T22:28:37.982Z,95136.95
2019-02-05T22:31:12.159Z,95125.11
2019-02-05T22:33:45.702Z,95131.20
2019-02-05T22:36:18.407Z,95124.20
2019-02-05T22:38:51.593Z,95124.74
2019-02-05T22:41:24.708Z,95112.41
2019-02-05T22:43:57.543Z,95105.54
2019-02-05T22:46:30.524Z,95107.11
2019-02-05T22:49:03.527Z,95102.55
2019-02-05T22:51:36.414Z,95101.05
2019-02-05T22:54:09.672Z,95097.52
2019-02-05T22:56:42.463Z,95087.34
2019-02-05T22:59:15.450Z,95086.24
2019-02-05T23:01:58.867Z,95082.56
2019-02-05T23:05:27.587Z,95081.95
2019-02-05T23:08:00.659Z,95078.63
2019-02-05T23:11:06.659Z,95082.84
2019-02-05T23:13:40.110Z,95073.58
2019-02-05T23:16:12.987Z,95081.36
2019-02-05T23:18:46.040Z,95070.15
2019-02-05T23:21:19.201Z,95064.34
2019-02-05T23:23:52.454Z,95054.19
2019-02-05T23:26:25.438Z,95053.44
2019-02-05T23:28:58.629Z,95044.41
2019-02-05T23:31:31.589Z,95035.05
2019-02-05T23:34:04.828Z,95034.31
2019-02-05T23:36:37.831Z,95037.53
2019-02-05T23:39:15.335Z,95028.38
2019-02-05T23:41:54.476Z,95041.88
2019-02-05T23:44:34.070Z,95030.34
2019-02-05T23:47:13.815Z,95024.48
2019-02-05T23:49:52.491Z,95023.00
2019-02-05T23:52:30.905Z,95030.48
2019-02-05T23:55:11.750Z,95033.14
2019-02-05T23:57:50.731Z,95033.22
